Time;durP1;ratioP1;P1;durP2;ratioP2;P2;SDS_P1;SDS_P2;PMS_P1;PMS_P2;Temp;Humidity;BMP_temperature;BMP_pressure;BME280_temperature;BME280_humidity;BME280_pressure;Samples;Min_cycle;Max_cycle;Signal;HPM_P1;HPM_P2
2021/11/16 00:00:40;;;;;;;0.57;0.40;;;6.70;99.90;;;;;;5060781;28;20200;-81
2021/11/16 00:03:09;;;;;;;0.50;0.40;;;6.80;99.90;;;;;;5060297;28;20192;-80
2021/11/16 00:05:36;;;;;;;0.50;0.40;;;6.70;99.90;;;;;;5060600;28;20254;-81
2021/11/16 00:08:04;;;;;;;0.50;0.40;;;6.80;99.90;;;;;;5060259;28;20285;-80
2021/11/16 00:10:31;;;;;;;0.50;0.40;;;6.80;99.90;;;;;;5060199;28;20211;-80
2021/11/16 00:12:58;;;;;;;113.30;88.90;;;6.70;99.90;;;;;;5059276;28;20191;-80
2021/11/16 00:15:25;;;;;;;0.50;0.40;;;6.80;99.90;;;;;;5059878;28;20297;-80
2021/11/16 00:17:52;;;;;;;0.50;0.40;;;6.80;99.90;;;;;;5060359;28;20221;-80
2021/11/16 00:20:21;;;;;;;0.50;0.40;;;6.70;99.90;;;;;;5059853;28;20219;-80
2021/11/16 00:22:48;;;;;;;0.50;0.40;;;6.70;99.90;;;;;;5059817;28;20225;-80
2021/11/16 00:25:23;;;;;;;1.30;1.30;;;6.80;99.90;;;;;;5060406;28;20197;-80
2021/11/16 00:27:50;;;;;;;1.67;1.58;;;6.80;99.90;;;;;;5059956;28;20189;-80
2021/11/16 00:30:18;;;;;;;0.50;0.40;;;6.60;99.90;;;;;;5059612;28;20262;-80
2021/11/16 00:32:45;;;;;;;0.50;0.40;;;6.60;99.90;;;;;;5060608;28;20631;-80
2021/11/16 00:35:12;;;;;;;0.50;0.40;;;6.50;99.90;;;;;;5059080;28;20255;-80
2021/11/16 00:37:40;;;;;;;0.50;0.40;;;6.60;99.90;;;;;;5060228;28;20284;-80
2021/11/16 00:40:12;;;;;;;1.35;1.25;;;6.60;99.90;;;;;;5058944;28;20208;-80
2021/11/16 00:42:39;;;;;;;1.25;1.23;;;6.60;99.90;;;;;;5059067;28;20215;-81
2021/11/16 00:45:07;;;;;;;0.50;0.50;;;6.60;99.90;;;;;;5060241;28;20205;-80
2021/11/16 00:47:34;;;;;;;1.25;1.25;;;6.60;99.90;;;;;;5059680;28;20208;-80
2021/11/16 00:50:01;;;;;;;0.50;0.40;;;6.60;99.90;;;;;;5059958;28;20203;-79
2021/11/16 00:52:28;;;;;;;1.40;1.30;;;6.60;99.90;;;;;;5059637;28;20221;-80
2021/11/16 00:54:56;;;;;;;0.70;0.70;;;6.60;99.90;;;;;;5058878;28;20290;-80
2021/11/16 00:57:23;;;;;;;0.50;0.40;;;6.60;99.90;;;;;;5058428;28;20218;-80
2021/11/16 00:59:51;;;;;;;0.70;0.70;;;6.60;99.90;;;;;;5059701;28;20226;-80
2021/11/16 01:02:18;;;;;;;0.50;0.40;;;6.60;99.90;;;;;;5059209;28;20224;-78
2021/11/16 01:04:48;;;;;;;0.50;0.40;;;6.50;99.90;;;;;;5059680;28;20195;-82
2021/11/16 01:07:16;;;;;;;0.50;0.40;;;6.60;99.90;;;;;;5058144;28;20226;-79
2021/11/16 01:09:45;;;;;;;5.35;5.15;;;6.60;99.90;;;;;;5058783;28;20253;-79
2021/11/16 01:12:14;;;;;;;0.50;0.40;;;6.40;99.90;;;;;;5057713;28;20227;-79
2021/11/16 01:14:41;;;;;;;0.50;0.40;;;6.50;99.90;;;;;;5059773;28;20211;-82
2021/11/16 01:17:09;;;;;;;0.50;0.40;;;6.50;99.90;;;;;;5058267;28;20326;-81
2021/11/16 01:19:36;;;;;;;1.20;1.17;;;6.50;99.90;;;;;;5059338;28;20199;-81
2021/11/16 01:22:03;;;;;;;0.50;0.40;;;6.50;99.90;;;;;;5059231;28;20199;-81
2021/11/16 01:24:30;;;;;;;0.50;0.40;;;6.60;99.90;;;;;;5059505;28;20290;-81
2021/11/16 01:26:57;;;;;;;0.50;0.40;;;6.60;99.90;;;;;;5059411;28;20215;-80
2021/11/16 01:29:25;;;;;;;0.50;0.40;;;6.60;99.90;;;;;;5057558;28;20201;-81
2021/11/16 01:31:55;;;;;;;1.73;1.63;;;6.60;99.90;;;;;;5059097;28;20227;-81
2021/11/16 01:34:27;;;;;;;0.50;0.40;;;6.70;99.90;;;;;;5059400;28;20209;-81
2021/11/16 01:36:54;;;;;;;0.50;0.40;;;6.70;99.90;;;;;;5059201;28;20225;-80
2021/11/16 01:39:21;;;;;;;0.50;0.40;;;6.70;99.90;;;;;;5059029;28;20194;-80
2021/11/16 01:41:48;;;;;;;0.50;0.40;;;6.70;99.90;;;;;;5059058;28;20191;-80
2021/11/16 01:44:15;;;;;;;0.50;0.40;;;6.70;99.90;;;;;;5058645;28;20287;-80
2021/11/16 01:46:43;;;;;;;0.60;0.55;;;6.70;99.90;;;;;;5059016;28;20225;-81
2021/11/16 01:49:11;;;;;;;0.50;0.40;;;6.70;99.90;;;;;;5059111;28;20302;-81
2021/11/16 01:51:39;;;;;;;0.50;0.40;;;6.70;99.90;;;;;;5058607;28;20282;-81
2021/11/16 01:54:07;;;;;;;0.50;0.40;;;6.60;99.90;;;;;;5058844;28;20238;-80
2021/11/16 01:56:37;;;;;;;0.50;0.40;;;6.50;99.90;;;;;;5058405;28;20241;-81
2021/11/16 01:59:05;;;;;;;0.50;0.40;;;6.60;99.90;;;;;;5058716;28;20224;-81
2021/11/16 02:01:33;;;;;;;0.50;0.50;;;6.70;99.90;;;;;;5058819;28;20199;-81
2021/11/16 02:04:04;;;;;;;1.45;1.35;;;6.70;99.90;;;;;;5058616;28;20207;-81
2021/11/16 02:09:06;;;;;;;0.50;0.40;;;6.60;99.90;;;;;;5017260;28;20220;-79
2021/11/16 02:11:33;;;;;;;2.58;1.08;;;6.60;99.90;;;;;;5025574;28;20566;-80
2021/11/16 02:14:01;;;;;;;0.50;0.40;;;6.60;99.90;;;;;;5032980;28;20191;-79
2021/11/16 02:16:28;;;;;;;0.50;0.40;;;6.60;99.90;;;;;;5032641;28;20230;-79
2021/11/16 02:18:55;;;;;;;0.60;0.60;;;6.50;99.90;;;;;;5036951;28;20289;-80
2021/11/16 02:21:24;;;;;;;0.50;0.40;;;6.50;99.90;;;;;;5036577;28;20284;-79
2021/11/16 02:23:50;;;;;;;0.50;0.40;;;6.60;99.90;;;;;;5036761;28;20625;-79
2021/11/16 02:26:17;;;;;;;0.50;0.40;;;6.50;99.90;;;;;;5036803;28;20190;-81
2021/11/16 02:28:46;;;;;;;0.50;0.40;;;6.50;99.90;;;;;;5036692;28;20216;-79
2021/11/16 02:31:14;;;;;;;0.50;0.40;;;6.50;99.90;;;;;;5036558;28;20195;-79
2021/11/16 02:33:41;;;;;;;0.50;0.40;;;6.50;99.90;;;;;;5035973;28;20195;-81
2021/11/16 02:36:08;;;;;;;2.25;2.05;;;6.50;99.90;;;;;;5036508;28;20600;-80
2021/11/16 02:38:37;;;;;;;0.50;0.40;;;6.50;99.90;;;;;;5036341;28;20223;-79
2021/11/16 02:41:06;;;;;;;0.50;0.40;;;6.60;99.90;;;;;;5036288;28;20198;-81
2021/11/16 02:43:35;;;;;;;0.50;0.40;;;6.60;99.90;;;;;;5036296;28;20197;-81
2021/11/16 02:46:02;;;;;;;0.50;0.40;;;6.50;99.90;;;;;;5036192;28;20206;-79
2021/11/16 02:48:29;;;;;;;0.50;0.40;;;6.50;99.90;;;;;;5036490;28;20221;-77
2021/11/16 02:50:59;;;;;;;4.40;4.20;;;6.50;99.90;;;;;;5036284;28;20197;-79
2021/11/16 02:53:26;;;;;;;0.50;0.40;;;6.50;99.90;;;;;;5035944;28;20191;-79
2021/11/16 02:55:55;;;;;;;0.50;0.40;;;6.50;99.90;;;;;;5035609;28;20224;-80
2021/11/16 02:58:23;;;;;;;1.88;1.77;;;6.50;99.90;;;;;;5035583;28;20222;-80
2021/11/16 03:00:53;;;;;;;0.50;0.40;;;6.50;99.90;;;;;;5034918;28;20199;-81
2021/11/16 03:03:21;;;;;;;0.50;0.40;;;6.50;99.90;;;;;;5035965;28;20605;-80
2021/11/16 03:05:49;;;;;;;0.50;0.40;;;6.50;99.90;;;;;;5035282;28;20195;-80
2021/11/16 03:08:20;;;;;;;0.50;0.40;;;6.60;99.90;;;;;;5035408;28;20231;-78
2021/11/16 03:10:48;;;;;;;0.80;0.80;;;6.50;99.90;;;;;;5035459;28;20200;-79
2021/11/16 03:13:17;;;;;;;0.50;0.40;;;6.60;99.90;;;;;;5035987;28;20203;-80
2021/11/16 03:15:43;;;;;;;0.50;0.40;;;6.60;99.90;;;;;;5035798;28;20199;-79
2021/11/16 03:18:10;;;;;;;0.82;0.82;;;6.60;99.90;;;;;;5035365;28;20207;-79
2021/11/16 03:20:38;;;;;;;0.50;0.40;;;6.60;99.90;;;;;;5035356;28;20207;-80
2021/11/16 03:23:12;;;;;;;0.50;0.40;;;6.60;99.90;;;;;;5036162;28;20286;-81
2021/11/16 03:25:43;;;;;;;0.50;0.40;;;6.50;99.90;;;;;;5035745;28;20199;-79
2021/11/16 03:28:11;;;;;;;0.50;0.40;;;6.60;99.90;;;;;;5035343;28;20743;-80
2021/11/16 03:30:41;;;;;;;0.50;0.40;;;6.60;99.90;;;;;;5034580;28;20195;-80
2021/11/16 03:33:08;;;;;;;0.50;0.40;;;6.60;99.90;;;;;;5035604;28;20662;-80
2021/11/16 03:35:36;;;;;;;0.50;0.40;;;6.60;99.90;;;;;;5035367;28;20279;-78
2021/11/16 03:38:04;;;;;;;0.50;0.40;;;6.60;99.90;;;;;;5035193;28;20228;-80
2021/11/16 03:40:34;;;;;;;0.50;0.40;;;6.60;99.90;;;;;;5035377;28;20226;-80
2021/11/16 03:43:02;;;;;;;0.50;0.40;;;6.60;99.90;;;;;;5035485;28;20245;-80
2021/11/16 03:45:29;;;;;;;0.50;0.40;;;6.60;99.90;;;;;;5035213;28;20294;-81
2021/11/16 03:48:00;;;;;;;0.50;0.40;;;6.70;99.90;;;;;;5035239;28;20208;-78
2021/11/16 03:50:28;;;;;;;0.50;0.40;;;6.70;99.90;;;;;;5034994;28;20191;-80
2021/11/16 03:52:57;;;;;;;0.50;0.40;;;6.80;99.90;;;;;;5035309;28;20222;-80
2021/11/16 03:55:27;;;;;;;0.50;0.40;;;6.80;99.90;;;;;;5035270;28;20220;-79
2021/11/16 03:57:55;;;;;;;0.50;0.40;;;6.90;99.90;;;;;;5034791;28;20705;-79
2021/11/16 04:00:24;;;;;;;0.50;0.40;;;6.80;99.90;;;;;;5034537;28;20219;-80
2021/11/16 04:02:51;;;;;;;0.50;0.40;;;6.80;99.90;;;;;;5034572;28;20657;-79
2021/11/16 04:05:20;;;;;;;0.50;0.40;;;6.80;99.90;;;;;;5035113;28;20195;-81
2021/11/16 04:07:47;;;;;;;0.50;0.40;;;6.80;99.90;;;;;;5034680;28;20220;-80
2021/11/16 04:10:14;;;;;;;0.50;0.40;;;6.90;99.90;;;;;;5033533;28;20201;-80
2021/11/16 04:12:43;;;;;;;0.50;0.40;;;6.90;99.90;;;;;;5033260;28;20196;-78
2021/11/16 04:15:10;;;;;;;0.50;0.40;;;6.90;99.90;;;;;;5033422;28;20199;-79
2021/11/16 04:17:40;;;;;;;0.50;0.40;;;6.80;99.90;;;;;;5034193;28;20313;-80
2021/11/16 04:20:11;;;;;;;0.50;0.40;;;6.80;99.90;;;;;;5033797;28;20366;-80
2021/11/16 04:22:40;;;;;;;0.50;0.40;;;6.80;99.90;;;;;;5033603;28;20206;-78
2021/11/16 04:25:07;;;;;;;0.50;0.40;;;6.80;99.90;;;;;;5033326;28;20194;-78
2021/11/16 04:27:34;;;;;;;0.60;0.50;;;6.80;99.90;;;;;;5033560;28;20221;-79
2021/11/16 04:30:01;;;;;;;0.50;0.40;;;6.90;99.90;;;;;;5033674;28;20204;-78
2021/11/16 04:32:28;;;;;;;3.95;3.70;;;6.90;99.90;;;;;;5032925;28;20201;-79
2021/11/16 04:34:54;;;;;;;4.40;1.48;;;6.90;99.90;;;;;;5033525;28;20628;-78
2021/11/16 04:37:23;;;;;;;0.50;0.40;;;6.90;99.90;;;;;;5033027;28;20290;-79
2021/11/16 04:39:51;;;;;;;3.33;1.40;;;6.90;99.90;;;;;;5033506;28;20254;-78
2021/11/16 04:42:18;;;;;;;0.50;0.40;;;6.90;99.90;;;;;;5032347;28;20290;-78
2021/11/16 04:44:45;;;;;;;6.15;5.75;;;6.90;99.90;;;;;;5033083;28;20247;-78
2021/11/16 04:47:17;;;;;;;0.50;0.40;;;6.90;99.90;;;;;;5033609;28;20220;-79
2021/11/16 04:49:47;;;;;;;0.50;0.40;;;6.80;99.90;;;;;;5032781;28;20179;-77
2021/11/16 04:52:20;;;;;;;0.50;0.40;;;6.80;99.90;;;;;;5027591;28;20724;-79
2021/11/16 05:03:09;;;;;;;0.50;0.40;;;6.80;99.90;;;;;;5012807;28;20196;-78
2021/11/16 05:05:36;;;;;;;0.50;0.40;;;6.80;99.90;;;;;;5013670;28;20273;-76
2021/11/16 05:08:04;;;;;;;0.50;0.40;;;6.80;99.90;;;;;;5012927;28;20220;-78
2021/11/16 05:10:31;;;;;;;0.50;0.40;;;6.80;99.90;;;;;;5017897;28;20192;-79
2021/11/16 05:13:00;;;;;;;0.50;0.40;;;6.80;99.90;;;;;;5032615;28;20206;-78
2021/11/16 05:15:28;;;;;;;0.50;0.40;;;6.80;99.90;;;;;;5033301;28;20649;-78
2021/11/16 05:17:55;;;;;;;0.50;0.40;;;6.80;99.90;;;;;;5032589;28;20307;-77
2021/11/16 05:20:23;;;;;;;0.50;0.40;;;6.80;99.90;;;;;;5032765;28;20196;-79
2021/11/16 05:22:53;;;;;;;0.50;0.40;;;6.80;99.90;;;;;;5033000;28;20199;-79
2021/11/16 05:25:20;;;;;;;0.50;0.40;;;6.70;99.90;;;;;;5032290;28;20201;-79
2021/11/16 05:27:48;;;;;;;0.50;0.40;;;6.80;99.90;;;;;;5031827;28;20214;-79
2021/11/16 05:30:17;;;;;;;0.50;0.40;;;6.70;99.90;;;;;;5032172;28;20202;-79
2021/11/16 05:32:44;;;;;;;0.50;0.40;;;6.80;99.90;;;;;;5032847;28;20223;-79
2021/11/16 05:35:13;;;;;;;0.50;0.40;;;6.80;99.90;;;;;;5032462;28;20196;-80
2021/11/16 05:37:41;;;;;;;0.50;0.40;;;6.80;99.90;;;;;;5033288;28;20251;-78
2021/11/16 05:40:09;;;;;;;0.60;0.40;;;6.80;99.90;;;;;;5032415;28;20204;-78
2021/11/16 05:42:37;;;;;;;0.50;0.40;;;6.80;99.90;;;;;;5035006;28;20195;-77
2021/11/16 05:45:04;;;;;;;0.50;0.50;;;6.80;99.90;;;;;;5032527;28;20199;-77
2021/11/16 05:47:33;;;;;;;0.50;0.40;;;6.80;99.90;;;;;;5032408;28;20256;-78
2021/11/16 05:50:00;;;;;;;0.50;0.40;;;6.80;99.90;;;;;;5032601;28;20198;-80
2021/11/16 05:52:27;;;;;;;0.50;0.40;;;6.80;99.90;;;;;;5033769;28;20233;-79
2021/11/16 05:54:54;;;;;;;0.50;0.40;;;6.90;99.90;;;;;;5037009;28;20280;-79
2021/11/16 05:57:21;;;;;;;0.50;0.40;;;6.80;99.90;;;;;;5036867;28;20221;-76
2021/11/16 05:59:48;;;;;;;0.50;0.40;;;6.80;99.90;;;;;;5037323;28;20202;-79
2021/11/16 06:02:15;;;;;;;0.50;0.40;;;6.80;99.90;;;;;;5035795;28;20233;-79
2021/11/16 06:04:44;;;;;;;0.50;0.40;;;6.80;99.90;;;;;;5036582;28;20196;-79
2021/11/16 06:07:13;;;;;;;0.50;0.40;;;6.90;99.90;;;;;;5036479;28;20675;-78
2021/11/16 06:09:42;;;;;;;0.50;0.40;;;6.90;99.90;;;;;;5037180;28;20200;-79
2021/11/16 06:12:10;;;;;;;1.02;1.02;;;6.90;99.90;;;;;;5035751;28;20753;-79
2021/11/16 06:14:37;;;;;;;0.50;0.40;;;6.90;99.90;;;;;;5037252;28;20657;-78
2021/11/16 06:17:05;;;;;;;0.50;0.40;;;6.90;99.90;;;;;;5036586;28;20231;-79
2021/11/16 06:19:35;;;;;;;0.50;0.40;;;6.90;99.90;;;;;;5036622;28;20191;-79
2021/11/16 06:22:04;;;;;;;0.50;0.40;;;6.90;99.90;;;;;;5036462;28;20196;-78
2021/11/16 06:24:31;;;;;;;0.50;0.40;;;6.80;99.90;;;;;;5038501;28;20207;-78
2021/11/16 06:26:58;;;;;;;0.50;0.40;;;6.80;99.90;;;;;;5036414;28;20222;-79
2021/11/16 06:29:24;;;;;;;0.60;0.60;;;6.70;99.90;;;;;;5036976;28;20550;-80
2021/11/16 06:31:51;;;;;;;0.50;0.40;;;6.70;99.90;;;;;;5033405;28;20230;-79
2021/11/16 06:34:18;;;;;;;0.88;0.88;;;6.70;99.90;;;;;;5036475;28;20230;-78
2021/11/16 06:36:47;;;;;;;0.50;0.50;;;6.70;99.90;;;;;;5039471;28;20298;-80
2021/11/16 06:39:17;;;;;;;0.50;0.40;;;6.60;99.90;;;;;;5037666;28;20196;-79
2021/11/16 06:41:46;;;;;;;0.50;0.40;;;6.70;99.90;;;;;;5036201;28;20685;-78
2021/11/16 06:44:15;;;;;;;0.70;0.70;;;6.70;99.90;;;;;;5037349;28;20192;-79
2021/11/16 06:46:43;;;;;;;0.50;0.40;;;6.70;99.90;;;;;;5037094;28;20209;-79
2021/11/16 06:49:11;;;;;;;0.50;0.40;;;6.70;99.90;;;;;;5035962;28;20205;-78
2021/11/16 06:51:40;;;;;;;0.50;0.40;;;6.70;99.90;;;;;;5035074;28;20201;-77
2021/11/16 06:54:09;;;;;;;0.50;0.40;;;6.60;99.90;;;;;;5035186;28;20226;-78
2021/11/16 06:56:39;;;;;;;0.70;0.70;;;6.60;99.90;;;;;;5035553;28;20199;-78
2021/11/16 06:59:06;;;;;;;0.50;0.40;;;6.60;99.90;;;;;;5035428;28;20648;-78
2021/11/16 07:01:36;;;;;;;0.50;0.40;;;6.60;99.90;;;;;;5034821;28;20610;-78
2021/11/16 07:04:08;;;;;;;0.60;0.40;;;6.60;99.90;;;;;;5034133;28;20196;-78
2021/11/16 07:06:36;;;;;;;2.97;2.78;;;6.60;99.90;;;;;;5034694;28;20289;-78
2021/11/16 07:09:03;;;;;;;1.88;1.77;;;6.60;99.90;;;;;;5034537;28;20271;-79
2021/11/16 07:11:30;;;;;;;0.50;0.40;;;6.70;99.90;;;;;;5033898;28;20228;-78
2021/11/16 07:14:01;;;;;;;0.50;0.40;;;6.70;99.90;;;;;;5034628;28;20191;-77
2021/11/16 07:16:30;;;;;;;0.50;0.40;;;6.70;99.90;;;;;;5034701;28;20551;-78
2021/11/16 07:18:59;;;;;;;0.50;0.40;;;6.70;99.90;;;;;;5035435;28;20211;-78
2021/11/16 07:21:27;;;;;;;0.95;0.95;;;6.70;99.90;;;;;;5034089;28;20194;-78
2021/11/16 07:24:05;;;;;;;0.50;0.40;;;6.70;99.90;;;;;;5034930;28;20656;-78
2021/11/16 07:26:38;;;;;;;0.50;0.40;;;6.70;99.90;;;;;;5034538;28;20233;-79
2021/11/16 07:29:08;;;;;;;0.50;0.40;;;6.70;99.90;;;;;;5034538;28;20174;-78
2021/11/16 07:31:38;;;;;;;0.82;0.73;;;6.70;99.90;;;;;;5033713;28;20274;-77
2021/11/16 07:34:15;;;;;;;0.50;0.40;;;6.70;99.90;;;;;;5033654;28;20188;-79
2021/11/16 07:36:53;;;;;;;0.50;0.40;;;6.70;99.90;;;;;;5034943;28;20601;-78
2021/11/16 07:39:20;;;;;;;0.50;0.40;;;6.70;99.90;;;;;;5035170;28;20179;-79
2021/11/16 07:41:47;;;;;;;4.47;4.20;;;6.70;99.90;;;;;;5035199;28;20205;-78
2021/11/16 07:44:16;;;;;;;0.50;0.40;;;6.70;99.90;;;;;;5034294;28;20196;-78
2021/11/16 07:46:53;;;;;;;0.50;0.40;;;6.60;99.90;;;;;;5035050;28;20202;-78
2021/11/16 07:49:21;;;;;;;0.50;0.40;;;6.60;99.90;;;;;;5034990;28;20632;-77
2021/11/16 07:51:48;;;;;;;0.50;0.40;;;6.60;99.90;;;;;;5034370;28;20194;-78
2021/11/16 07:54:20;;;;;;;0.50;0.40;;;6.60;99.90;;;;;;5034922;28;20193;-79
2021/11/16 07:56:47;;;;;;;0.50;0.40;;;6.60;99.90;;;;;;5034792;28;20191;-79
2021/11/16 07:59:17;;;;;;;0.50;0.40;;;6.60;99.90;;;;;;5027519;28;20568;-79
2021/11/16 08:01:55;;;;;;;0.50;0.40;;;6.60;99.90;;;;;;5032512;28;20549;-79
2021/11/16 08:04:25;;;;;;;0.60;0.40;;;6.60;99.90;;;;;;5034266;28;20195;-80
2021/11/16 08:06:59;;;;;;;2.38;1.63;;;6.60;99.90;;;;;;5035214;28;20237;-79
2021/11/16 08:09:38;;;;;;;0.60;0.60;;;6.60;99.90;;;;;;5035137;28;20198;-79
2021/11/16 08:12:11;;;;;;;0.50;0.40;;;6.70;99.90;;;;;;5034862;28;20281;-78
2021/11/16 08:14:39;;;;;;;0.50;0.40;;;6.70;99.90;;;;;;5037723;28;20207;-77
2021/11/16 08:17:08;;;;;;;1.15;1.15;;;6.70;99.90;;;;;;5036622;28;20244;-79
2021/11/16 08:19:36;;;;;;;0.50;0.40;;;6.70;99.90;;;;;;5035500;28;20212;-78
2021/11/16 08:22:06;;;;;;;0.50;0.40;;;6.70;99.90;;;;;;5035493;28;20207;-78
2021/11/16 08:24:37;;;;;;;0.50;0.40;;;6.70;99.90;;;;;;5036055;28;20223;-79
2021/11/16 08:27:10;;;;;;;0.50;0.50;;;6.70;99.90;;;;;;5035416;28;20303;-78
2021/11/16 08:29:40;;;;;;;0.50;0.40;;;6.70;99.90;;;;;;5035825;28;20300;-79
2021/11/16 08:32:11;;;;;;;0.50;0.40;;;6.70;99.90;;;;;;5036031;28;20201;-77
2021/11/16 08:34:40;;;;;;;0.50;0.40;;;6.70;99.90;;;;;;5037760;28;20203;-77
2021/11/16 08:37:09;;;;;;;7.65;2.85;;;6.70;99.90;;;;;;5036440;28;20658;-78
2021/11/16 08:39:39;;;;;;;0.50;0.40;;;6.60;99.90;;;;;;5036844;28;20247;-77
2021/11/16 08:42:12;;;;;;;0.50;0.40;;;6.60;99.90;;;;;;5036449;28;20229;-79
2021/11/16 08:44:48;;;;;;;0.63;0.63;;;6.60;99.90;;;;;;5036216;28;20206;-79
2021/11/16 08:47:16;;;;;;;0.50;0.40;;;6.50;99.90;;;;;;5035489;28;20235;-78
2021/11/16 08:49:44;;;;;;;0.60;0.60;;;6.50;99.90;;;;;;5037204;28;20286;-79
2021/11/16 08:52:16;;;;;;;0.50;0.40;;;6.50;99.90;;;;;;5037340;28;20260;-78
2021/11/16 08:54:54;;;;;;;0.50;0.40;;;6.50;99.90;;;;;;5035148;28;20202;-77
2021/11/16 08:57:22;;;;;;;0.50;0.40;;;6.60;99.90;;;;;;5034816;28;20234;-78
2021/11/16 08:59:50;;;;;;;0.50;0.40;;;6.60;99.90;;;;;;5041497;28;20232;-78
2021/11/16 09:02:20;;;;;;;0.50;0.40;;;6.60;99.90;;;;;;5034200;28;20561;-78
2021/11/16 09:04:47;;;;;;;0.50;0.40;;;6.70;99.90;;;;;;5034269;28;20191;-79
2021/11/16 09:07:28;;;;;;;4.35;3.80;;;6.70;99.90;;;;;;5034100;28;20265;-79
2021/11/16 09:09:59;;;;;;;3.33;3.15;;;6.70;99.90;;;;;;5034954;28;20623;-79
2021/11/16 09:12:39;;;;;;;0.50;0.40;;;6.70;99.90;;;;;;5035926;28;20581;-79
2021/11/16 09:15:11;;;;;;;0.50;0.40;;;6.70;99.90;;;;;;5038464;28;20270;-77
2021/11/16 09:17:39;;;;;;;0.50;0.40;;;6.70;99.90;;;;;;5039039;28;20617;-78
2021/11/16 09:20:30;;;;;;;0.50;0.40;;;6.70;99.90;;;;;;5037766;28;20215;-78
2021/11/16 09:22:57;;;;;;;0.50;0.40;;;6.70;99.90;;;;;;5021879;28;20275;-79
2021/11/16 09:25:28;;;;;;;1.90;1.80;;;6.70;99.90;;;;;;5034235;28;20749;-78
2021/11/16 09:28:07;;;;;;;0.50;0.40;;;6.70;99.90;;;;;;5033958;28;20219;-78
2021/11/16 09:30:40;;;;;;;0.50;0.40;;;6.70;99.90;;;;;;5033615;28;20199;-78
2021/11/16 09:33:11;;;;;;;0.50;0.40;;;6.70;99.90;;;;;;5033941;28;20270;-78
2021/11/16 09:35:47;;;;;;;0.50;0.40;;;6.70;99.90;;;;;;5033031;28;20220;-76
2021/11/16 09:38:14;;;;;;;12.00;2.25;;;6.70;99.90;;;;;;5033704;28;20310;-78
2021/11/16 09:40:41;;;;;;;1.98;1.88;;;6.70;99.90;;;;;;5033401;28;20214;-78
2021/11/16 09:43:11;;;;;;;1.60;1.50;;;6.80;99.90;;;;;;5033222;28;20243;-79
2021/11/16 09:45:41;;;;;;;0.50;0.40;;;6.80;99.90;;;;;;5033510;28;20214;-79
2021/11/16 09:48:10;;;;;;;0.50;0.40;;;6.80;99.90;;;;;;5034147;28;20272;-78
2021/11/16 09:50:38;;;;;;;0.50;0.40;;;6.90;99.90;;;;;;5033241;28;20199;-77
2021/11/16 09:53:15;;;;;;;0.50;0.40;;;6.90;99.90;;;;;;5033800;28;20197;-79
2021/11/16 09:55:43;;;;;;;0.50;0.40;;;7.00;99.90;;;;;;5033430;28;20212;-79
2021/11/16 09:58:26;;;;;;;0.50;0.40;;;6.90;99.90;;;;;;5033296;28;20218;-77
2021/11/16 10:00:55;;;;;;;0.50;0.40;;;6.90;99.90;;;;;;5032912;28;20200;-78
2021/11/16 10:03:24;;;;;;;0.50;0.40;;;7.00;99.90;;;;;;5033517;28;20259;-78
2021/11/16 10:05:54;;;;;;;0.50;0.40;;;7.00;99.90;;;;;;5033396;28;20280;-77
2021/11/16 10:08:22;;;;;;;0.50;0.40;;;6.90;99.90;;;;;;5033242;28;20426;-79
2021/11/16 10:10:53;;;;;;;0.50;0.40;;;6.90;99.90;;;;;;5032765;28;20206;-79
2021/11/16 10:13:24;;;;;;;0.50;0.40;;;6.90;99.90;;;;;;5033720;28;20204;-79
2021/11/16 10:15:53;;;;;;;0.50;0.40;;;6.90;99.90;;;;;;5033357;28;20287;-78
2021/11/16 10:18:24;;;;;;;0.50;0.40;;;6.90;99.90;;;;;;5033123;28;20217;-78
2021/11/16 10:20:52;;;;;;;0.50;0.40;;;6.90;99.90;;;;;;5032713;28;20244;-78
2021/11/16 10:23:29;;;;;;;0.50;0.40;;;7.00;99.90;;;;;;5032086;28;20717;-78
2021/11/16 10:25:58;;;;;;;3.80;2.35;;;7.00;99.90;;;;;;5032073;28;20294;-78
2021/11/16 10:28:25;;;;;;;0.50;0.40;;;7.00;99.90;;;;;;5032245;28;20580;-77
2021/11/16 10:30:57;;;;;;;0.50;0.40;;;7.00;99.90;;;;;;5030893;28;20250;-78
2021/11/16 10:33:29;;;;;;;0.50;0.40;;;6.90;99.90;;;;;;5032337;28;20204;-77
2021/11/16 10:35:59;;;;;;;0.50;0.40;;;6.90;99.90;;;;;;5031863;28;20620;-78
2021/11/16 10:38:28;;;;;;;0.50;0.40;;;6.80;99.90;;;;;;5031264;28;20227;-78
2021/11/16 10:40:56;;;;;;;0.50;0.40;;;6.90;99.90;;;;;;5034707;28;20616;-78
2021/11/16 10:43:24;;;;;;;0.50;0.40;;;6.90;99.90;;;;;;5035199;28;20199;-77
2021/11/16 10:45:52;;;;;;;0.50;0.40;;;6.90;99.90;;;;;;5035255;28;20223;-78
2021/11/16 10:48:22;;;;;;;1.50;1.40;;;7.00;99.90;;;;;;5034708;28;20308;-78
2021/11/16 10:50:52;;;;;;;0.50;0.40;;;7.10;99.90;;;;;;5033758;28;20254;-77
2021/11/16 10:53:21;;;;;;;0.50;0.40;;;7.10;99.90;;;;;;5034825;28;20223;-78
2021/11/16 10:55:50;;;;;;;0.50;0.40;;;7.10;99.90;;;;;;5034625;28;20200;-76
2021/11/16 10:58:19;;;;;;;0.50;0.40;;;7.10;99.90;;;;;;5034297;28;20303;-78
2021/11/16 11:00:52;;;;;;;0.50;0.40;;;7.00;99.90;;;;;;5034379;28;20192;-78
2021/11/16 11:03:28;;;;;;;0.50;0.40;;;7.00;99.90;;;;;;5034590;28;20195;-78
2021/11/16 11:05:58;;;;;;;0.50;0.40;;;7.00;99.90;;;;;;5034450;28;20216;-78
2021/11/16 11:08:43;;;;;;;1.98;0.95;;;6.90;99.90;;;;;;5034724;28;20310;-78
2021/11/16 11:11:24;;;;;;;0.50;0.40;;;7.00;99.90;;;;;;5033346;28;20732;-78
2021/11/16 11:13:57;;;;;;;0.50;0.40;;;7.10;99.90;;;;;;5034701;28;20238;-78
2021/11/16 11:16:25;;;;;;;0.50;0.40;;;7.10;99.90;;;;;;5034330;28;20289;-78
2021/11/16 11:18:53;;;;;;;0.50;0.40;;;7.00;99.90;;;;;;5034742;28;20303;-78
2021/11/16 11:21:37;;;;;;;0.50;0.40;;;7.00;99.90;;;;;;5034318;28;20204;-78
2021/11/16 11:24:11;;;;;;;1.33;1.23;;;6.90;99.90;;;;;;5034683;28;20186;-78
2021/11/16 11:26:41;;;;;;;0.80;0.80;;;7.00;99.90;;;;;;5033658;28;20683;-78
2021/11/16 11:29:23;;;;;;;0.50;0.35;;;7.00;99.90;;;;;;5036204;28;20196;-79
2021/11/16 11:31:58;;;;;;;2.15;2.05;;;7.00;99.90;;;;;;5035244;28;20195;-79
2021/11/16 11:34:36;;;;;;;0.50;0.38;;;7.10;99.90;;;;;;5036345;28;20222;-79
2021/11/16 11:37:08;;;;;;;0.50;0.40;;;7.10;99.90;;;;;;5035516;28;20252;-79
2021/11/16 11:39:35;;;;;;;0.50;0.40;;;7.20;99.90;;;;;;5035555;28;20211;-79
2021/11/16 11:42:02;;;;;;;0.50;0.40;;;7.20;99.90;;;;;;5034485;28;20202;-78
2021/11/16 11:44:38;;;;;;;0.50;0.40;;;7.20;99.90;;;;;;5034069;28;20202;-78
2021/11/16 11:47:05;;;;;;;0.50;0.40;;;7.30;99.90;;;;;;5033421;28;20709;-78
2021/11/16 11:49:33;;;;;;;0.98;0.73;;;7.30;99.90;;;;;;5033676;28;20281;-78
2021/11/16 11:52:02;;;;;;;0.60;0.40;;;7.30;99.90;;;;;;5034045;28;20285;-77
2021/11/16 11:54:30;;;;;;;0.50;0.40;;;7.30;99.90;;;;;;5033781;28;20201;-75
2021/11/16 11:56:57;;;;;;;0.52;0.52;;;7.30;99.90;;;;;;5033576;28;20216;-77
2021/11/16 11:59:25;;;;;;;0.50;0.40;;;7.20;99.90;;;;;;5033568;28;20215;-78
2021/11/16 12:01:53;;;;;;;0.50;0.40;;;7.20;99.90;;;;;;5033346;28;20215;-78
2021/11/16 12:04:20;;;;;;;0.50;0.40;;;7.20;99.90;;;;;;5033841;28;20283;-77
2021/11/16 12:06:50;;;;;;;0.93;0.93;;;7.20;99.90;;;;;;5034220;28;20666;-76
2021/11/16 12:09:17;;;;;;;1.05;1.05;;;7.30;99.90;;;;;;5036544;28;20282;-79
2021/11/16 12:11:46;;;;;;;0.60;0.60;;;7.30;99.90;;;;;;5034424;28;20295;-79
2021/11/16 12:14:22;;;;;;;0.50;0.40;;;7.20;99.90;;;;;;5034750;28;20220;-79
2021/11/16 12:16:59;;;;;;;0.50;0.40;;;7.20;99.90;;;;;;5034917;28;20293;-79
2021/11/16 12:19:42;;;;;;;0.50;0.40;;;7.20;99.90;;;;;;5034299;28;20700;-80
2021/11/16 12:22:16;;;;;;;0.60;0.40;;;7.30;99.90;;;;;;5035410;28;20200;-78
2021/11/16 12:24:46;;;;;;;0.50;0.40;;;7.30;99.90;;;;;;5035615;28;20202;-76
2021/11/16 12:27:16;;;;;;;5.10;2.05;;;7.20;99.90;;;;;;5034924;28;20218;-79
2021/11/16 12:29:46;;;;;;;0.50;0.40;;;7.20;99.90;;;;;;5035745;28;20565;-80
2021/11/16 12:32:25;;;;;;;0.82;0.82;;;7.20;99.90;;;;;;5040959;28;20202;-80
2021/11/16 12:35:01;;;;;;;0.50;0.40;;;7.20;99.90;;;;;;5044175;28;20688;-79
2021/11/16 12:37:36;;;;;;;0.50;0.40;;;7.20;99.90;;;;;;5043766;28;20223;-79
2021/11/16 12:40:08;;;;;;;0.50;0.40;;;7.30;99.90;;;;;;5043571;28;20226;-79
2021/11/16 12:42:37;;;;;;;0.50;0.40;;;7.30;99.90;;;;;;5044576;28;20223;-80
2021/11/16 12:45:08;;;;;;;0.50;0.40;;;7.30;99.90;;;;;;5044599;28;20201;-79
2021/11/16 12:47:54;;;;;;;2.35;1.25;;;7.40;99.90;;;;;;5044639;28;20217;-79
2021/11/16 12:50:23;;;;;;;0.60;0.60;;;7.40;99.90;;;;;;5044556;28;20196;-79
2021/11/16 12:52:53;;;;;;;0.50;0.40;;;7.50;99.90;;;;;;5044119;28;20223;-80
2021/11/16 12:55:24;;;;;;;7.93;7.38;;;7.50;99.90;;;;;;5043506;28;20196;-79
2021/11/16 12:57:54;;;;;;;0.50;0.40;;;7.50;99.90;;;;;;5043326;28;20299;-79
2021/11/16 13:00:37;;;;;;;0.50;0.40;;;7.40;99.90;;;;;;5042255;28;20299;-80
2021/11/16 13:03:05;;;;;;;3.92;3.13;;;7.40;99.90;;;;;;5042425;28;20194;-79
2021/11/16 13:05:36;;;;;;;0.50;0.40;;;7.40;99.90;;;;;;5043561;28;20215;-79
2021/11/16 13:08:05;;;;;;;0.50;0.40;;;7.30;99.90;;;;;;5044215;28;20235;-80
2021/11/16 13:10:35;;;;;;;0.50;0.40;;;7.30;99.90;;;;;;5042195;28;20209;-80
2021/11/16 13:13:14;;;;;;;0.50;0.40;;;7.40;99.90;;;;;;5038031;28;20223;-77
2021/11/16 13:15:48;;;;;;;1.85;1.75;;;7.40;99.90;;;;;;5035082;28;20199;-78
2021/11/16 13:18:33;;;;;;;0.50;0.40;;;7.40;99.90;;;;;;5033766;28;20219;-79
2021/11/16 13:21:16;;;;;;;0.50;0.40;;;7.30;99.90;;;;;;5033199;28;20217;-78